This is the latest recevied weather packets stored in our database for station/object OH6HPS. If no packets are shown the sender has not sent any weather packets the latest 1 day(s).
| Time | Temp. | Humidity | Pressure | Rain* | Wind** | Luminosity | Snow |
|---|---|---|---|---|---|---|---|
| 1778013908 | 1.67° C | 79% | 1008 hPa | 0 mm | 0.45 m/s, 234° | 0 W/m² | - |
| 1778013309 | 1.67° C | 79% | 1007.8 hPa | 0 mm | 0 m/s | 0 W/m² | - |
| 1778012708 | 1.67° C | 77% | 1007.8 hPa | 0 mm | 0.45 m/s, 235° | 0 W/m² | - |
| 1778012108 | 2.22° C | 77% | 1007.7 hPa | 0 mm | 0 m/s | 0 W/m² | - |
| 1778011508 | 2.22° C | 77% | 1007.6 hPa | 0 mm | 0 m/s | 0 W/m² | - |
| 1778010904 | 2.78° C | 76% | 1007.5 hPa | 0 mm | 0.89 m/s, 235° | 0 W/m² | - |
| 1778010305 | 2.78° C | 75% | 1007.5 hPa | 0 mm | 0 m/s | 0 W/m² | - |
| 1778009705 | 3.33° C | 74% | 1007.4 hPa | 0 mm | 0 m/s | 0 W/m² | - |
| 1778009104 | 3.33° C | 72% | 1007.4 hPa | 0 mm | 0 m/s | 0 W/m² | - |
| 1778008518 | 3.89° C | 70% | 1007.3 hPa | 0 mm | 0 m/s | 0 W/m² | - |
| 1778007904 | 4.44° C | 69% | 1007.2 hPa | 0 mm | 0.45 m/s, 226° | 0 W/m² | - |
| 1778007305 | 5° C | 68% | 1007.2 hPa | 0 mm | 0.45 m/s, 231° | 0 W/m² | - |
| 1778006704 | 5° C | 66% | 1007.1 hPa | 0 mm | 0.45 m/s, 231° | 0 W/m² | - |
| 1778006105 | 5.56° C | 64% | 1007 hPa | 0 mm | 0.45 m/s, 235° | 0 W/m² | - |
| 1778005510 | 6.11° C | 63% | 1006.8 hPa | 0 mm | 0 m/s | 5 W/m² | - |
| 1778004904 | 6.11° C | 61% | 1006.7 hPa | 0 mm | 0.89 m/s, 243° | 12 W/m² | - |
| 1778004306 | 6.67° C | 59% | 1006.6 hPa | 0 mm | 0.89 m/s, 252° | 12 W/m² | - |
| 1778003705 | 6.67° C | 58% | 1006.5 hPa | 0 mm | 0.89 m/s, 271° | 14 W/m² | - |
| 1778003104 | 7.22° C | 56% | 1006.5 hPa | 0 mm | 1.34 m/s, 226° | 21 W/m² | - |
| 1778002504 | 7.78° C | 55% | 1006.5 hPa | 0 mm | 1.79 m/s, 251° | 25 W/m² | - |
| 1778001906 | 7.78° C | 55% | 1006.3 hPa | 0 mm | 0.89 m/s, 228° | 48 W/m² | - |
| 1778001305 | 7.78° C | 53% | 1006.3 hPa | 0 mm | 1.34 m/s, 203° | 39 W/m² | - |
| 1778000704 | 7.78° C | 52% | 1006.3 hPa | 0 mm | 1.34 m/s, 221° | 35 W/m² | - |
| 1778000104 | 7.78° C | 51% | 1006.1 hPa | 0 mm | 1.79 m/s, 228° | 35 W/m² | - |
| 1777999505 | 8.33° C | 50% | 1006.1 hPa | 0 mm | 2.68 m/s, 203° | 30 W/m² | - |
* Rain latest hour (hover to see other rain measurements)
** Current wind speed in m/s (hover to see current wind gust speed)